Terminal Aerodrome Forecast
Issued by NWS Central Illinois

Home | Current Version | Previous Version | Text Only | Print | Product List | Glossary On
Versions: 1 2 3 4 5 6 7 8 9 10 11 12 13 14 15 16 17 18
000
FTUS43 KILX 272332
TAFSPI
TAF
KSPI 272332Z 2800/2824 02007KT P6SM BKN070
     FM280500 02006KT P6SM SCT090
     FM281700 03010KT P6SM SCT050=

USA.gov is the U.S. government's official web portal to all federal, state and local government web resources and services.